Terminal Aerodrome Forecast
Issued by NWS

Home | Current Version | Previous Version | Graphics & Text | Print | Product List | Glossary On
Versions: 1 2 3 4 5 6 7 8 9 10 11 12 13 14 15 16 17 18 19 20 21 22 23 24 25 26
000
FTUS42 KMHX 271200 AAA
TAFOAJ
TAF AMD
KOAJ 271232Z 2713/2812 21005KT P6SM SCT030 BKN250
      TEMPO 2713/2714 3SM BR BKN005
     FM271900 24012G17KT P6SM BKN040 BKN250
     FM280100 20011KT P6SM SCT100
      AMD LTD TO CLD VIS AND WIND=

USA.gov is the U.S. government's official web portal to all federal, state and local government web resources and services.